CHO weather

Charlottesville Albemarle Airport
Charlottesville, Virginia, United States

Public forecast

Using degrees Fahrenheit for public forecast. Weather courtesy of forecast.io.

METAR (pilot weather report)

Retrieved 2019/04/24 22:53 UTC (49 minutes ago):

KCHO 242253Z 02008KT 10SM CLR 24/15 A2984 RMK AO2 SLP097 T02390150

TAF (pilot weather forecast)

Retrieved 2019/04/24 18:42 UTC (5 hours ago):

TAF KCHO 241741Z 2418/2518 VRB03KT P6SM BKN150 FM242300 00000KT P6SM BKN150 FM251500 16004KT P6SM OVC100